sensor_id;sensor_type;location;lat;lon;timestamp;P1;durP1;ratioP1;P2;durP2;ratioP2
16963;SDS011;8598;50.508;10.436;2022-12-20T00:02:10;50.87;;;24.50;;
16963;SDS011;8598;50.508;10.436;2022-12-20T00:04:36;53.87;;;23.87;;
16963;SDS011;8598;50.508;10.436;2022-12-20T00:07:03;50.97;;;25.20;;
16963;SDS011;8598;50.508;10.436;2022-12-20T00:09:30;40.73;;;21.97;;
16963;SDS011;8598;50.508;10.436;2022-12-20T00:11:58;45.83;;;22.13;;
16963;SDS011;8598;50.508;10.436;2022-12-20T00:14:25;52.10;;;23.33;;
16963;SDS011;8598;50.508;10.436;2022-12-20T00:16:51;40.90;;;20.93;;
16963;SDS011;8598;50.508;10.436;2022-12-20T00:19:18;49.80;;;21.80;;
16963;SDS011;8598;50.508;10.436;2022-12-20T00:21:45;43.50;;;22.10;;
16963;SDS011;8598;50.508;10.436;2022-12-20T00:24:12;41.37;;;20.77;;
16963;SDS011;8598;50.508;10.436;2022-12-20T00:26:38;47.70;;;21.30;;
16963;SDS011;8598;50.508;10.436;2022-12-20T00:29:06;41.63;;;21.40;;
16963;SDS011;8598;50.508;10.436;2022-12-20T00:31:33;54.63;;;22.97;;
16963;SDS011;8598;50.508;10.436;2022-12-20T00:34:00;47.27;;;22.13;;
16963;SDS011;8598;50.508;10.436;2022-12-20T00:36:28;46.13;;;21.30;;
16963;SDS011;8598;50.508;10.436;2022-12-20T00:38:56;48.23;;;21.50;;
16963;SDS011;8598;50.508;10.436;2022-12-20T00:41:25;52.77;;;22.23;;
16963;SDS011;8598;50.508;10.436;2022-12-20T00:43:53;50.87;;;21.17;;
16963;SDS011;8598;50.508;10.436;2022-12-20T00:46:21;48.63;;;22.37;;
16963;SDS011;8598;50.508;10.436;2022-12-20T00:48:49;45.13;;;22.40;;
16963;SDS011;8598;50.508;10.436;2022-12-20T00:51:17;42.37;;;21.67;;
16963;SDS011;8598;50.508;10.436;2022-12-20T00:53:45;47.17;;;22.77;;
16963;SDS011;8598;50.508;10.436;2022-12-20T00:56:12;50.60;;;21.47;;
16963;SDS011;8598;50.508;10.436;2022-12-20T00:58:40;45.90;;;21.23;;
16963;SDS011;8598;50.508;10.436;2022-12-20T01:01:13;45.77;;;22.07;;
16963;SDS011;8598;50.508;10.436;2022-12-20T01:03:43;47.90;;;20.77;;
16963;SDS011;8598;50.508;10.436;2022-12-20T01:06:10;47.10;;;22.20;;
16963;SDS011;8598;50.508;10.436;2022-12-20T01:08:37;46.43;;;21.07;;
16963;SDS011;8598;50.508;10.436;2022-12-20T01:11:05;49.80;;;22.03;;
16963;SDS011;8598;50.508;10.436;2022-12-20T01:13:34;43.93;;;22.67;;
16963;SDS011;8598;50.508;10.436;2022-12-20T01:16:05;44.43;;;21.20;;
16963;SDS011;8598;50.508;10.436;2022-12-20T01:18:33;43.87;;;19.83;;
16963;SDS011;8598;50.508;10.436;2022-12-20T01:21:02;43.37;;;21.67;;
16963;SDS011;8598;50.508;10.436;2022-12-20T01:23:30;41.50;;;21.33;;
16963;SDS011;8598;50.508;10.436;2022-12-20T01:25:58;46.30;;;22.13;;
16963;SDS011;8598;50.508;10.436;2022-12-20T01:28:25;52.87;;;23.93;;
16963;SDS011;8598;50.508;10.436;2022-12-20T01:30:52;47.67;;;21.97;;
16963;SDS011;8598;50.508;10.436;2022-12-20T01:33:18;51.53;;;21.73;;
16963;SDS011;8598;50.508;10.436;2022-12-20T01:35:53;50.70;;;23.13;;
16963;SDS011;8598;50.508;10.436;2022-12-20T01:38:22;47.17;;;21.23;;
16963;SDS011;8598;50.508;10.436;2022-12-20T01:40:49;46.43;;;22.30;;
16963;SDS011;8598;50.508;10.436;2022-12-20T01:43:16;46.20;;;22.83;;
16963;SDS011;8598;50.508;10.436;2022-12-20T01:45:44;46.03;;;22.27;;
16963;SDS011;8598;50.508;10.436;2022-12-20T01:48:11;45.97;;;22.10;;
16963;SDS011;8598;50.508;10.436;2022-12-20T01:50:40;45.70;;;22.43;;
16963;SDS011;8598;50.508;10.436;2022-12-20T01:53:07;49.33;;;22.13;;
16963;SDS011;8598;50.508;10.436;2022-12-20T01:55:36;43.40;;;22.20;;
16963;SDS011;8598;50.508;10.436;2022-12-20T01:58:04;48.53;;;22.97;;
16963;SDS011;8598;50.508;10.436;2022-12-20T02:00:33;42.67;;;21.93;;
16963;SDS011;8598;50.508;10.436;2022-12-20T02:03:03;47.70;;;23.80;;
16963;SDS011;8598;50.508;10.436;2022-12-20T02:05:33;44.63;;;21.90;;
16963;SDS011;8598;50.508;10.436;2022-12-20T02:08:02;38.97;;;22.47;;
16963;SDS011;8598;50.508;10.436;2022-12-20T02:10:33;53.63;;;22.50;;
16963;SDS011;8598;50.508;10.436;2022-12-20T02:13:11;46.10;;;23.30;;
16963;SDS011;8598;50.508;10.436;2022-12-20T02:15:50;40.53;;;21.83;;
16963;SDS011;8598;50.508;10.436;2022-12-20T02:18:21;45.67;;;22.07;;
16963;SDS011;8598;50.508;10.436;2022-12-20T02:21:01;44.73;;;22.10;;
16963;SDS011;8598;50.508;10.436;2022-12-20T02:27:00;45.03;;;20.80;;
16963;SDS011;8598;50.508;10.436;2022-12-20T02:29:54;43.37;;;21.67;;
16963;SDS011;8598;50.508;10.436;2022-12-20T02:32:26;45.97;;;21.23;;
16963;SDS011;8598;50.508;10.436;2022-12-20T02:34:57;41.17;;;21.20;;
16963;SDS011;8598;50.508;10.436;2022-12-20T02:37:24;45.10;;;22.00;;
16963;SDS011;8598;50.508;10.436;2022-12-20T02:39:50;46.27;;;21.70;;
16963;SDS011;8598;50.508;10.436;2022-12-20T02:42:18;42.47;;;21.73;;
16963;SDS011;8598;50.508;10.436;2022-12-20T02:44:49;38.53;;;20.37;;
16963;SDS011;8598;50.508;10.436;2022-12-20T02:47:48;44.37;;;22.20;;
16963;SDS011;8598;50.508;10.436;2022-12-20T02:50:21;42.90;;;20.33;;
16963;SDS011;8598;50.508;10.436;2022-12-20T02:52:50;43.20;;;20.77;;
16963;SDS011;8598;50.508;10.436;2022-12-20T02:55:18;38.03;;;20.17;;
16963;SDS011;8598;50.508;10.436;2022-12-20T02:57:51;47.43;;;23.17;;
16963;SDS011;8598;50.508;10.436;2022-12-20T03:00:23;48.40;;;22.10;;
16963;SDS011;8598;50.508;10.436;2022-12-20T03:02:52;47.53;;;23.23;;
16963;SDS011;8598;50.508;10.436;2022-12-20T03:05:38;43.20;;;23.47;;
16963;SDS011;8598;50.508;10.436;2022-12-20T03:08:10;50.73;;;22.67;;
16963;SDS011;8598;50.508;10.436;2022-12-20T03:10:37;45.47;;;22.70;;
16963;SDS011;8598;50.508;10.436;2022-12-20T03:13:03;45.83;;;22.20;;
16963;SDS011;8598;50.508;10.436;2022-12-20T03:15:30;47.40;;;22.03;;
16963;SDS011;8598;50.508;10.436;2022-12-20T03:17:58;45.23;;;22.27;;
16963;SDS011;8598;50.508;10.436;2022-12-20T03:20:25;40.27;;;21.10;;
16963;SDS011;8598;50.508;10.436;2022-12-20T03:22:51;44.37;;;21.57;;
16963;SDS011;8598;50.508;10.436;2022-12-20T03:25:18;41.17;;;20.93;;
16963;SDS011;8598;50.508;10.436;2022-12-20T03:27:45;45.03;;;22.43;;
16963;SDS011;8598;50.508;10.436;2022-12-20T03:30:15;46.90;;;23.27;;
16963;SDS011;8598;50.508;10.436;2022-12-20T03:32:42;43.90;;;22.93;;
16963;SDS011;8598;50.508;10.436;2022-12-20T03:35:10;41.50;;;21.70;;
16963;SDS011;8598;50.508;10.436;2022-12-20T03:37:36;45.60;;;22.17;;
16963;SDS011;8598;50.508;10.436;2022-12-20T03:40:03;38.67;;;20.87;;
16963;SDS011;8598;50.508;10.436;2022-12-20T03:42:31;50.17;;;24.20;;
16963;SDS011;8598;50.508;10.436;2022-12-20T03:44:58;44.30;;;22.83;;
16963;SDS011;8598;50.508;10.436;2022-12-20T03:47:25;43.87;;;23.53;;
16963;SDS011;8598;50.508;10.436;2022-12-20T03:49:51;47.00;;;22.00;;
16963;SDS011;8598;50.508;10.436;2022-12-20T03:52:19;44.37;;;22.37;;
16963;SDS011;8598;50.508;10.436;2022-12-20T03:54:46;50.13;;;24.27;;
16963;SDS011;8598;50.508;10.436;2022-12-20T03:57:13;43.97;;;22.27;;
16963;SDS011;8598;50.508;10.436;2022-12-20T03:59:40;42.93;;;22.03;;
16963;SDS011;8598;50.508;10.436;2022-12-20T04:02:07;44.13;;;22.40;;
16963;SDS011;8598;50.508;10.436;2022-12-20T04:04:34;41.80;;;21.80;;
16963;SDS011;8598;50.508;10.436;2022-12-20T04:07:01;41.23;;;22.60;;
16963;SDS011;8598;50.508;10.436;2022-12-20T04:09:29;44.27;;;20.83;;
16963;SDS011;8598;50.508;10.436;2022-12-20T04:11:56;50.43;;;22.13;;
16963;SDS011;8598;50.508;10.436;2022-12-20T04:14:22;46.40;;;22.83;;
16963;SDS011;8598;50.508;10.436;2022-12-20T04:16:49;46.00;;;24.17;;
16963;SDS011;8598;50.508;10.436;2022-12-20T04:19:16;43.17;;;22.53;;
16963;SDS011;8598;50.508;10.436;2022-12-20T04:21:43;43.80;;;21.80;;
16963;SDS011;8598;50.508;10.436;2022-12-20T04:24:09;44.50;;;23.07;;
16963;SDS011;8598;50.508;10.436;2022-12-20T04:26:37;44.97;;;22.50;;
16963;SDS011;8598;50.508;10.436;2022-12-20T04:29:04;44.10;;;23.90;;
16963;SDS011;8598;50.508;10.436;2022-12-20T04:31:31;46.30;;;23.37;;
16963;SDS011;8598;50.508;10.436;2022-12-20T04:33:58;49.17;;;23.80;;
16963;SDS011;8598;50.508;10.436;2022-12-20T04:36:25;49.27;;;23.50;;
16963;SDS011;8598;50.508;10.436;2022-12-20T04:38:51;47.30;;;23.77;;
16963;SDS011;8598;50.508;10.436;2022-12-20T04:41:19;45.17;;;23.30;;
16963;SDS011;8598;50.508;10.436;2022-12-20T04:43:50;43.90;;;21.50;;
16963;SDS011;8598;50.508;10.436;2022-12-20T04:46:18;47.43;;;24.27;;
16963;SDS011;8598;50.508;10.436;2022-12-20T04:48:45;50.23;;;23.00;;
16963;SDS011;8598;50.508;10.436;2022-12-20T04:51:12;47.40;;;23.67;;
16963;SDS011;8598;50.508;10.436;2022-12-20T04:53:39;54.20;;;24.77;;
16963;SDS011;8598;50.508;10.436;2022-12-20T04:56:14;49.40;;;22.37;;
16963;SDS011;8598;50.508;10.436;2022-12-20T04:58:43;47.33;;;22.73;;
16963;SDS011;8598;50.508;10.436;2022-12-20T05:01:11;51.30;;;24.43;;
16963;SDS011;8598;50.508;10.436;2022-12-20T05:03:38;49.10;;;22.67;;
16963;SDS011;8598;50.508;10.436;2022-12-20T05:06:05;48.07;;;24.50;;
16963;SDS011;8598;50.508;10.436;2022-12-20T05:08:32;52.53;;;24.37;;
16963;SDS011;8598;50.508;10.436;2022-12-20T05:11:00;44.83;;;22.53;;
16963;SDS011;8598;50.508;10.436;2022-12-20T05:13:27;50.23;;;25.90;;
16963;SDS011;8598;50.508;10.436;2022-12-20T05:15:54;51.00;;;26.60;;
16963;SDS011;8598;50.508;10.436;2022-12-20T05:18:23;50.80;;;24.60;;
16963;SDS011;8598;50.508;10.436;2022-12-20T05:20:54;46.50;;;22.87;;
16963;SDS011;8598;50.508;10.436;2022-12-20T05:23:40;46.17;;;23.83;;
16963;SDS011;8598;50.508;10.436;2022-12-20T05:26:25;48.03;;;22.63;;
16963;SDS011;8598;50.508;10.436;2022-12-20T05:28:55;47.67;;;24.37;;
16963;SDS011;8598;50.508;10.436;2022-12-20T05:31:21;47.03;;;22.63;;
16963;SDS011;8598;50.508;10.436;2022-12-20T05:33:49;48.97;;;23.73;;
16963;SDS011;8598;50.508;10.436;2022-12-20T05:36:16;45.60;;;22.43;;
16963;SDS011;8598;50.508;10.436;2022-12-20T05:38:43;42.90;;;21.03;;
16963;SDS011;8598;50.508;10.436;2022-12-20T05:41:09;49.93;;;26.07;;
16963;SDS011;8598;50.508;10.436;2022-12-20T05:43:36;55.23;;;26.23;;
16963;SDS011;8598;50.508;10.436;2022-12-20T05:46:04;47.87;;;24.37;;
16963;SDS011;8598;50.508;10.436;2022-12-20T05:48:31;50.40;;;24.77;;
16963;SDS011;8598;50.508;10.436;2022-12-20T05:51:00;46.80;;;24.07;;
16963;SDS011;8598;50.508;10.436;2022-12-20T05:53:27;54.80;;;24.77;;
16963;SDS011;8598;50.508;10.436;2022-12-20T05:55:53;55.77;;;28.70;;
16963;SDS011;8598;50.508;10.436;2022-12-20T05:58:20;69.90;;;34.47;;
16963;SDS011;8598;50.508;10.436;2022-12-20T06:00:47;62.97;;;31.67;;
16963;SDS011;8598;50.508;10.436;2022-12-20T06:03:14;58.10;;;28.70;;
16963;SDS011;8598;50.508;10.436;2022-12-20T06:05:41;56.33;;;26.00;;
16963;SDS011;8598;50.508;10.436;2022-12-20T06:08:10;45.33;;;24.27;;
16963;SDS011;8598;50.508;10.436;2022-12-20T06:10:38;52.20;;;24.30;;
16963;SDS011;8598;50.508;10.436;2022-12-20T06:13:06;50.77;;;25.07;;
16963;SDS011;8598;50.508;10.436;2022-12-20T06:15:33;51.93;;;24.27;;
16963;SDS011;8598;50.508;10.436;2022-12-20T06:18:00;48.30;;;25.47;;
16963;SDS011;8598;50.508;10.436;2022-12-20T06:20:27;46.27;;;24.23;;
16963;SDS011;8598;50.508;10.436;2022-12-20T06:22:55;46.53;;;24.37;;
16963;SDS011;8598;50.508;10.436;2022-12-20T06:25:23;54.80;;;25.40;;
16963;SDS011;8598;50.508;10.436;2022-12-20T06:27:50;53.37;;;24.03;;
16963;SDS011;8598;50.508;10.436;2022-12-20T06:30:17;48.77;;;23.03;;
16963;SDS011;8598;50.508;10.436;2022-12-20T06:32:45;53.03;;;26.93;;
16963;SDS011;8598;50.508;10.436;2022-12-20T06:35:12;46.07;;;25.73;;
16963;SDS011;8598;50.508;10.436;2022-12-20T06:37:39;54.47;;;27.77;;
16963;SDS011;8598;50.508;10.436;2022-12-20T06:40:07;58.80;;;28.97;;
16963;SDS011;8598;50.508;10.436;2022-12-20T06:42:36;54.60;;;27.53;;
16963;SDS011;8598;50.508;10.436;2022-12-20T06:45:03;62.20;;;30.80;;
16963;SDS011;8598;50.508;10.436;2022-12-20T06:47:30;65.00;;;28.30;;
16963;SDS011;8598;50.508;10.436;2022-12-20T06:50:00;66.93;;;33.60;;
16963;SDS011;8598;50.508;10.436;2022-12-20T06:52:27;64.13;;;30.47;;
16963;SDS011;8598;50.508;10.436;2022-12-20T06:54:54;62.00;;;31.20;;
16963;SDS011;8598;50.508;10.436;2022-12-20T06:57:20;60.37;;;29.60;;
16963;SDS011;8598;50.508;10.436;2022-12-20T06:59:49;61.03;;;29.73;;
16963;SDS011;8598;50.508;10.436;2022-12-20T07:02:15;61.80;;;27.30;;
16963;SDS011;8598;50.508;10.436;2022-12-20T07:04:42;57.73;;;27.77;;
16963;SDS011;8598;50.508;10.436;2022-12-20T07:07:10;64.87;;;29.27;;
16963;SDS011;8598;50.508;10.436;2022-12-20T07:09:39;64.13;;;32.20;;
16963;SDS011;8598;50.508;10.436;2022-12-20T07:12:06;63.10;;;30.33;;
16963;SDS011;8598;50.508;10.436;2022-12-20T07:14:33;65.17;;;32.03;;
16963;SDS011;8598;50.508;10.436;2022-12-20T07:17:02;63.77;;;30.13;;
16963;SDS011;8598;50.508;10.436;2022-12-20T07:19:29;62.93;;;31.70;;
16963;SDS011;8598;50.508;10.436;2022-12-20T07:21:56;62.70;;;30.00;;
16963;SDS011;8598;50.508;10.436;2022-12-20T07:24:22;59.97;;;28.60;;
16963;SDS011;8598;50.508;10.436;2022-12-20T07:26:49;59.37;;;27.60;;
16963;SDS011;8598;50.508;10.436;2022-12-20T07:29:16;65.93;;;29.67;;
16963;SDS011;8598;50.508;10.436;2022-12-20T07:31:43;55.30;;;26.67;;
16963;SDS011;8598;50.508;10.436;2022-12-20T07:34:11;58.33;;;29.43;;
16963;SDS011;8598;50.508;10.436;2022-12-20T07:36:38;52.83;;;27.37;;
16963;SDS011;8598;50.508;10.436;2022-12-20T07:39:04;66.33;;;32.47;;
16963;SDS011;8598;50.508;10.436;2022-12-20T07:41:31;58.33;;;30.27;;
16963;SDS011;8598;50.508;10.436;2022-12-20T07:43:58;49.20;;;25.03;;
16963;SDS011;8598;50.508;10.436;2022-12-20T07:46:25;49.17;;;24.50;;
16963;SDS011;8598;50.508;10.436;2022-12-20T07:48:52;49.03;;;24.30;;
16963;SDS011;8598;50.508;10.436;2022-12-20T07:51:22;46.47;;;25.00;;
16963;SDS011;8598;50.508;10.436;2022-12-20T07:53:51;56.93;;;25.23;;
16963;SDS011;8598;50.508;10.436;2022-12-20T07:56:21;51.30;;;25.23;;
16963;SDS011;8598;50.508;10.436;2022-12-20T07:58:48;51.87;;;25.57;;
16963;SDS011;8598;50.508;10.436;2022-12-20T08:01:17;45.13;;;24.43;;
16963;SDS011;8598;50.508;10.436;2022-12-20T08:03:46;50.50;;;23.87;;
16963;SDS011;8598;50.508;10.436;2022-12-20T08:06:16;47.33;;;25.00;;
16963;SDS011;8598;50.508;10.436;2022-12-20T08:08:46;58.90;;;27.33;;
16963;SDS011;8598;50.508;10.436;2022-12-20T08:11:16;51.67;;;27.37;;
16963;SDS011;8598;50.508;10.436;2022-12-20T08:13:46;51.00;;;27.43;;
16963;SDS011;8598;50.508;10.436;2022-12-20T08:16:14;61.77;;;30.27;;
16963;SDS011;8598;50.508;10.436;2022-12-20T08:18:41;56.53;;;28.87;;
16963;SDS011;8598;50.508;10.436;2022-12-20T08:21:08;57.93;;;31.60;;
16963;SDS011;8598;50.508;10.436;2022-12-20T08:23:37;64.00;;;30.90;;
16963;SDS011;8598;50.508;10.436;2022-12-20T08:26:05;72.57;;;34.10;;
16963;SDS011;8598;50.508;10.436;2022-12-20T08:28:32;54.93;;;29.20;;
16963;SDS011;8598;50.508;10.436;2022-12-20T08:30:59;78.77;;;40.13;;
16963;SDS011;8598;50.508;10.436;2022-12-20T08:33:27;67.37;;;36.33;;
16963;SDS011;8598;50.508;10.436;2022-12-20T08:35:57;61.40;;;32.23;;
16963;SDS011;8598;50.508;10.436;2022-12-20T08:38:24;51.33;;;26.47;;
16963;SDS011;8598;50.508;10.436;2022-12-20T08:40:52;57.60;;;27.57;;
16963;SDS011;8598;50.508;10.436;2022-12-20T08:43:20;49.20;;;26.27;;
16963;SDS011;8598;50.508;10.436;2022-12-20T08:45:50;57.40;;;28.90;;
16963;SDS011;8598;50.508;10.436;2022-12-20T08:48:18;59.63;;;28.57;;
16963;SDS011;8598;50.508;10.436;2022-12-20T08:50:45;55.17;;;25.80;;
16963;SDS011;8598;50.508;10.436;2022-12-20T08:53:12;49.63;;;25.23;;
16963;SDS011;8598;50.508;10.436;2022-12-20T08:55:39;65.53;;;29.70;;
16963;SDS011;8598;50.508;10.436;2022-12-20T08:58:05;54.60;;;25.93;;
16963;SDS011;8598;50.508;10.436;2022-12-20T09:00:34;56.80;;;27.37;;
16963;SDS011;8598;50.508;10.436;2022-12-20T09:03:01;50.40;;;25.27;;
16963;SDS011;8598;50.508;10.436;2022-12-20T09:05:28;59.33;;;29.03;;
16963;SDS011;8598;50.508;10.436;2022-12-20T09:07:54;47.83;;;26.03;;
16963;SDS011;8598;50.508;10.436;2022-12-20T09:10:21;57.70;;;29.93;;
16963;SDS011;8598;50.508;10.436;2022-12-20T09:12:49;54.03;;;28.87;;
16963;SDS011;8598;50.508;10.436;2022-12-20T09:15:15;70.73;;;29.37;;
16963;SDS011;8598;50.508;10.436;2022-12-20T09:17:44;47.50;;;25.37;;
16963;SDS011;8598;50.508;10.436;2022-12-20T09:20:11;45.13;;;24.17;;
16963;SDS011;8598;50.508;10.436;2022-12-20T09:22:38;45.87;;;23.07;;
16963;SDS011;8598;50.508;10.436;2022-12-20T09:25:05;47.57;;;25.50;;
16963;SDS011;8598;50.508;10.436;2022-12-20T09:27:32;52.50;;;27.17;;
16963;SDS011;8598;50.508;10.436;2022-12-20T09:29:59;45.67;;;25.13;;
16963;SDS011;8598;50.508;10.436;2022-12-20T09:32:26;40.83;;;26.07;;
16963;SDS011;8598;50.508;10.436;2022-12-20T09:34:54;56.03;;;26.07;;
16963;SDS011;8598;50.508;10.436;2022-12-20T09:37:20;39.37;;;23.33;;
16963;SDS011;8598;50.508;10.436;2022-12-20T09:39:47;44.13;;;22.50;;
16963;SDS011;8598;50.508;10.436;2022-12-20T09:42:15;45.70;;;22.60;;
16963;SDS011;8598;50.508;10.436;2022-12-20T09:44:44;37.03;;;21.87;;
16963;SDS011;8598;50.508;10.436;2022-12-20T09:47:13;37.17;;;20.07;;
16963;SDS011;8598;50.508;10.436;2022-12-20T09:49:43;37.83;;;20.30;;
16963;SDS011;8598;50.508;10.436;2022-12-20T09:52:18;39.83;;;20.47;;
16963;SDS011;8598;50.508;10.436;2022-12-20T09:54:59;34.50;;;19.43;;
16963;SDS011;8598;50.508;10.436;2022-12-20T09:57:39;41.00;;;23.33;;
16963;SDS011;8598;50.508;10.436;2022-12-20T10:00:16;42.37;;;22.93;;
16963;SDS011;8598;50.508;10.436;2022-12-20T10:02:44;38.30;;;19.83;;
16963;SDS011;8598;50.508;10.436;2022-12-20T10:05:12;34.63;;;20.50;;
16963;SDS011;8598;50.508;10.436;2022-12-20T10:07:47;38.90;;;20.50;;
16963;SDS011;8598;50.508;10.436;2022-12-20T10:10:32;42.63;;;21.80;;
16963;SDS011;8598;50.508;10.436;2022-12-20T10:13:16;43.00;;;22.50;;
16963;SDS011;8598;50.508;10.436;2022-12-20T10:15:53;42.00;;;21.43;;
16963;SDS011;8598;50.508;10.436;2022-12-20T10:18:36;46.40;;;24.47;;
16963;SDS011;8598;50.508;10.436;2022-12-20T10:21:15;40.00;;;21.90;;
16963;SDS011;8598;50.508;10.436;2022-12-20T10:23:49;39.37;;;21.80;;
16963;SDS011;8598;50.508;10.436;2022-12-20T10:26:22;44.30;;;24.53;;
16963;SDS011;8598;50.508;10.436;2022-12-20T10:28:49;45.70;;;24.83;;
16963;SDS011;8598;50.508;10.436;2022-12-20T10:31:16;42.23;;;23.93;;
16963;SDS011;8598;50.508;10.436;2022-12-20T10:33:44;37.23;;;21.73;;
16963;SDS011;8598;50.508;10.436;2022-12-20T10:36:18;39.70;;;21.73;;
16963;SDS011;8598;50.508;10.436;2022-12-20T10:38:49;36.70;;;21.33;;
16963;SDS011;8598;50.508;10.436;2022-12-20T10:41:17;39.97;;;22.13;;
16963;SDS011;8598;50.508;10.436;2022-12-20T10:43:46;42.27;;;21.00;;
16963;SDS011;8598;50.508;10.436;2022-12-20T10:46:16;34.80;;;20.70;;
16963;SDS011;8598;50.508;10.436;2022-12-20T10:48:43;40.87;;;21.60;;
16963;SDS011;8598;50.508;10.436;2022-12-20T10:51:15;43.07;;;21.93;;
16963;SDS011;8598;50.508;10.436;2022-12-20T10:53:51;38.10;;;22.03;;
16963;SDS011;8598;50.508;10.436;2022-12-20T10:56:20;38.97;;;22.93;;
16963;SDS011;8598;50.508;10.436;2022-12-20T10:58:52;55.43;;;29.33;;
16963;SDS011;8598;50.508;10.436;2022-12-20T11:01:20;36.83;;;22.17;;
16963;SDS011;8598;50.508;10.436;2022-12-20T11:03:54;38.63;;;22.90;;
16963;SDS011;8598;50.508;10.436;2022-12-20T11:06:24;42.90;;;27.07;;
16963;SDS011;8598;50.508;10.436;2022-12-20T11:09:04;44.73;;;30.00;;
16963;SDS011;8598;50.508;10.436;2022-12-20T11:11:56;58.00;;;35.07;;
16963;SDS011;8598;50.508;10.436;2022-12-20T11:14:23;54.23;;;35.27;;
16963;SDS011;8598;50.508;10.436;2022-12-20T11:16:50;49.67;;;31.00;;
16963;SDS011;8598;50.508;10.436;2022-12-20T11:19:29;38.23;;;23.80;;
16963;SDS011;8598;50.508;10.436;2022-12-20T11:22:05;34.73;;;20.97;;
16963;SDS011;8598;50.508;10.436;2022-12-20T11:24:48;35.80;;;20.47;;
16963;SDS011;8598;50.508;10.436;2022-12-20T11:27:27;35.50;;;20.23;;
16963;SDS011;8598;50.508;10.436;2022-12-20T11:30:02;35.23;;;21.00;;
16963;SDS011;8598;50.508;10.436;2022-12-20T11:32:36;35.17;;;20.13;;
16963;SDS011;8598;50.508;10.436;2022-12-20T11:35:15;39.23;;;21.37;;
16963;SDS011;8598;50.508;10.436;2022-12-20T11:37:45;37.63;;;20.40;;
16963;SDS011;8598;50.508;10.436;2022-12-20T11:40:27;46.27;;;23.93;;
16963;SDS011;8598;50.508;10.436;2022-12-20T11:43:03;58.87;;;28.53;;
16963;SDS011;8598;50.508;10.436;2022-12-20T11:45:50;37.03;;;21.03;;
16963;SDS011;8598;50.508;10.436;2022-12-20T11:48:32;34.87;;;21.40;;
16963;SDS011;8598;50.508;10.436;2022-12-20T11:51:08;40.50;;;20.60;;
16963;SDS011;8598;50.508;10.436;2022-12-20T11:53:44;36.20;;;21.13;;
16963;SDS011;8598;50.508;10.436;2022-12-20T11:56:20;34.23;;;19.60;;
16963;SDS011;8598;50.508;10.436;2022-12-20T11:58:52;33.70;;;19.83;;
16963;SDS011;8598;50.508;10.436;2022-12-20T12:01:23;33.80;;;18.33;;
16963;SDS011;8598;50.508;10.436;2022-12-20T12:04:00;39.37;;;21.17;;
16963;SDS011;8598;50.508;10.436;2022-12-20T12:06:33;42.03;;;20.20;;
16963;SDS011;8598;50.508;10.436;2022-12-20T12:09:05;34.33;;;19.63;;
16963;SDS011;8598;50.508;10.436;2022-12-20T12:11:42;37.70;;;21.87;;
16963;SDS011;8598;50.508;10.436;2022-12-20T12:14:15;32.07;;;20.50;;
16963;SDS011;8598;50.508;10.436;2022-12-20T12:16:52;34.60;;;17.70;;
16963;SDS011;8598;50.508;10.436;2022-12-20T12:19:21;31.97;;;18.50;;
16963;SDS011;8598;50.508;10.436;2022-12-20T12:21:52;43.33;;;22.43;;
16963;SDS011;8598;50.508;10.436;2022-12-20T12:24:26;44.57;;;24.07;;
16963;SDS011;8598;50.508;10.436;2022-12-20T12:26:59;43.43;;;21.70;;
16963;SDS011;8598;50.508;10.436;2022-12-20T12:29:27;31.27;;;18.20;;
16963;SDS011;8598;50.508;10.436;2022-12-20T12:31:56;38.47;;;19.97;;
16963;SDS011;8598;50.508;10.436;2022-12-20T12:34:33;44.50;;;23.73;;
16963;SDS011;8598;50.508;10.436;2022-12-20T12:37:18;36.53;;;21.83;;
16963;SDS011;8598;50.508;10.436;2022-12-20T12:40:09;38.03;;;21.03;;
16963;SDS011;8598;50.508;10.436;2022-12-20T12:43:18;36.53;;;19.63;;
16963;SDS011;8598;50.508;10.436;2022-12-20T12:46:11;46.63;;;25.50;;
16963;SDS011;8598;50.508;10.436;2022-12-20T12:48:41;41.50;;;24.67;;
16963;SDS011;8598;50.508;10.436;2022-12-20T12:51:11;41.77;;;23.47;;
16963;SDS011;8598;50.508;10.436;2022-12-20T12:53:48;41.43;;;23.17;;
16963;SDS011;8598;50.508;10.436;2022-12-20T12:56:29;42.30;;;23.53;;
16963;SDS011;8598;50.508;10.436;2022-12-20T12:59:18;40.67;;;23.47;;
16963;SDS011;8598;50.508;10.436;2022-12-20T13:01:50;44.97;;;28.43;;
16963;SDS011;8598;50.508;10.436;2022-12-20T13:04:23;38.90;;;23.60;;
16963;SDS011;8598;50.508;10.436;2022-12-20T13:06:55;39.80;;;22.90;;
16963;SDS011;8598;50.508;10.436;2022-12-20T13:09:48;36.67;;;21.23;;
16963;SDS011;8598;50.508;10.436;2022-12-20T13:18:21;43.23;;;23.83;;
16963;SDS011;8598;50.508;10.436;2022-12-20T13:23:58;35.03;;;21.43;;
16963;SDS011;8598;50.508;10.436;2022-12-20T13:27:24;36.80;;;21.90;;
16963;SDS011;8598;50.508;10.436;2022-12-20T13:35:58;32.03;;;18.83;;
16963;SDS011;8598;50.508;10.436;2022-12-20T13:41:46;38.10;;;21.37;;
16963;SDS011;8598;50.508;10.436;2022-12-20T13:44:39;38.43;;;20.20;;
16963;SDS011;8598;50.508;10.436;2022-12-20T13:47:16;42.97;;;22.63;;
16963;SDS011;8598;50.508;10.436;2022-12-20T13:49:53;40.30;;;22.40;;
16963;SDS011;8598;50.508;10.436;2022-12-20T13:52:23;37.67;;;20.67;;
16963;SDS011;8598;50.508;10.436;2022-12-20T13:54:53;31.77;;;19.10;;
16963;SDS011;8598;50.508;10.436;2022-12-20T13:57:27;37.80;;;18.47;;
16963;SDS011;8598;50.508;10.436;2022-12-20T13:59:57;33.53;;;20.03;;
16963;SDS011;8598;50.508;10.436;2022-12-20T14:02:26;47.80;;;23.73;;
16963;SDS011;8598;50.508;10.436;2022-12-20T14:04:57;54.63;;;26.87;;
16963;SDS011;8598;50.508;10.436;2022-12-20T14:07:27;56.00;;;27.00;;
16963;SDS011;8598;50.508;10.436;2022-12-20T14:09:57;73.23;;;30.07;;
16963;SDS011;8598;50.508;10.436;2022-12-20T14:12:25;65.37;;;31.40;;
16963;SDS011;8598;50.508;10.436;2022-12-20T14:14:53;72.57;;;31.80;;
16963;SDS011;8598;50.508;10.436;2022-12-20T14:17:24;71.40;;;31.47;;
16963;SDS011;8598;50.508;10.436;2022-12-20T14:20:02;86.60;;;36.20;;
16963;SDS011;8598;50.508;10.436;2022-12-20T14:22:32;105.90;;;40.67;;
16963;SDS011;8598;50.508;10.436;2022-12-20T14:25:00;65.70;;;29.67;;
16963;SDS011;8598;50.508;10.436;2022-12-20T14:27:32;63.80;;;31.13;;
16963;SDS011;8598;50.508;10.436;2022-12-20T14:30:01;63.87;;;30.53;;
16963;SDS011;8598;50.508;10.436;2022-12-20T14:32:29;92.63;;;39.00;;
16963;SDS011;8598;50.508;10.436;2022-12-20T14:34:55;46.00;;;25.60;;
16963;SDS011;8598;50.508;10.436;2022-12-20T14:37:27;61.27;;;29.53;;
16963;SDS011;8598;50.508;10.436;2022-12-20T14:39:59;65.37;;;31.27;;
16963;SDS011;8598;50.508;10.436;2022-12-20T14:42:30;64.53;;;31.37;;
16963;SDS011;8598;50.508;10.436;2022-12-20T14:45:02;41.13;;;23.00;;
16963;SDS011;8598;50.508;10.436;2022-12-20T14:47:31;39.00;;;20.77;;
16963;SDS011;8598;50.508;10.436;2022-12-20T14:49:59;43.23;;;20.93;;
16963;SDS011;8598;50.508;10.436;2022-12-20T14:52:28;32.63;;;18.83;;
16963;SDS011;8598;50.508;10.436;2022-12-20T14:55:01;38.53;;;20.53;;
16963;SDS011;8598;50.508;10.436;2022-12-20T14:57:36;45.00;;;25.77;;
16963;SDS011;8598;50.508;10.436;2022-12-20T15:00:10;45.67;;;25.33;;
16963;SDS011;8598;50.508;10.436;2022-12-20T15:02:40;41.70;;;22.63;;